Airfield :
LOGIN :

Register | Disclaimer

   EN    FR    IT 

 










Legend :    VFR   Marginal VFR   IFR   Intensive IFR   Very Intensive IFR
Visi :
Ceiling :
>= 8 km
>= 3000ft
5 to 8 km
1000 to 3000 ft
1500m to 5 km
500 to 1000 ft
800 to 1500m
200 to 500 ft
< 800m
< 200 ft
Symbols :   Thunderstorms  Fog  Heavy snow  Heavy precipitations  Wind > 20 kt
SIGMETs :     Misc.  Thunderstorms  Icing  Turbulence  Mountain Waves  Volcanic Ashes







- Airport Elevation : 13 ft
- IATA code : OST


EBOS - Oostend bruges Int.

CURRENT METAR :
  • 190420Z 31015KT 9999 FEW035 07/00 Q1019 NOSIG

EXPIRED METARs :
  • 190350Z 32015KT 9999 FEW035 07/M01 Q1019 NOSIG
  • 190320Z 32015KT 9999 FEW035 07/M02 Q1019 NOSIG
  • 190250Z 33015KT 9999 FEW035 07/M01 Q1019 NOSIG
  • 190220Z 32015KT 9999 FEW035 07/M01 Q1019 NOSIG
  • 190150Z 31017KT 9999 FEW035 08/M01 Q1019 NOSIG

TAF TAF EBOS
Valid from the 19 at 00:00 until the 20 at 06:00 UTC


182300Z 1900/2006 33014KT 9999 FEW020 SCT035
TEMPO 1900/1913 33015G25KT
BECMG 1919/1921 21010KT
No reported NOTAMs for that airfield.



MET'MAP, your aeronautical weather chart ! - Copyright ORBIFLY December 2007 - Disclaimer

ORBIFLY MET'MAP TEAM :

Programming & Development : Alexandra Zaïnal
Concept & Development : Baudouin d'Aumeries
Co-Development & Prog : Marc-Olivier Méhu
Technical & hardware support : Manuel Goepfert

Contact : metmap@orbifly.com




SOURCES & CREDITS :

   NOAA